Andrus Island, California
Current Conditions -  °F | °C
As of 12:58 AM on Wednesday 26 Nov 2014 (Local Time) from KSUU Reporting Station
Haze Haze  
Wind Chill:   Ceiling: Unl
Heat Index:   Visibility: 6mi
Dew Point:   Wind: 6mph
Humidity: 100%   Direction: 60°ENE
Pressure: 30.33"   Gusts: NA
Location:  38.1457°N, 121.624°W
Report Text: KSUU 260858Z AUTO 06005KT 6SM BR CLR 05/05 A3033 RMK AO2 SLP278 T00540054 57012 $
Loading
Personal Weather Stations






























Interactive Weather Map New forecast layout! Learn more

10-Day Weather Forecast

Advertisements
Track Severe Weather on mobile